createdAt,value
2022-09-10T00:02:02.429Z,12.07
2022-09-10T00:04:29.147Z,12.70
2022-09-10T00:06:56.722Z,12.30
2022-09-10T00:09:23.503Z,13.95
2022-09-10T00:11:50.610Z,12.75
2022-09-10T00:14:21.554Z,11.77
2022-09-10T00:16:49.685Z,11.65
2022-09-10T00:19:16.978Z,11.93
2022-09-10T00:21:45.968Z,12.70
2022-09-10T00:24:14.163Z,11.02
2022-09-10T00:26:40.806Z,16.70
2022-09-10T00:29:12.107Z,11.73
2022-09-10T00:31:39.969Z,14.57
2022-09-10T00:34:07.531Z,18.63
2022-09-10T00:36:37.239Z,29.08
2022-09-10T00:41:39.556Z,46.00
2022-09-10T00:44:37.531Z,42.58
2022-09-10T00:47:06.305Z,44.58
2022-09-10T00:49:39.392Z,39.25
2022-09-10T00:52:07.826Z,24.55
2022-09-10T00:54:36.210Z,21.48
2022-09-10T00:57:12.616Z,22.25
2022-09-10T00:59:44.863Z,28.40
2022-09-10T01:02:12.299Z,23.13
2022-09-10T01:04:40.517Z,16.90
2022-09-10T01:07:09.927Z,13.85
2022-09-10T01:09:38.532Z,10.70
2022-09-10T01:12:57.457Z,12.25
2022-09-10T01:15:46.254Z,8.75
2022-09-10T01:18:52.279Z,6.67
2022-09-10T01:21:32.019Z,7.95
2022-09-10T01:26:56.588Z,8.77
2022-09-10T01:29:46.029Z,4.40
2022-09-10T01:32:17.696Z,5.93
2022-09-10T01:35:17.125Z,6.18
2022-09-10T01:37:59.425Z,5.32
2022-09-10T01:40:30.777Z,4.80
2022-09-10T01:43:02.620Z,6.68
2022-09-10T01:45:32.855Z,5.07
2022-09-10T01:48:16.267Z,7.85
2022-09-10T01:50:51.679Z,5.47
2022-09-10T01:53:36.467Z,5.40
2022-09-10T01:56:35.506Z,3.45
2022-09-10T01:59:14.236Z,5.43
2022-09-10T02:01:47.339Z,3.80
2022-09-10T02:04:15.961Z,2.25
2022-09-10T02:06:46.810Z,2.65
2022-09-10T02:09:16.159Z,2.80
2022-09-10T02:11:54.361Z,2.38
2022-09-10T02:14:22.274Z,2.67
2022-09-10T02:17:00.961Z,1.50
2022-09-10T02:19:28.034Z,2.60
2022-09-10T02:21:57.005Z,3.50
2022-09-10T02:24:23.911Z,3.22
2022-09-10T02:26:51.326Z,4.40
2022-09-10T02:29:19.409Z,5.70
2022-09-10T02:31:49.730Z,6.47
2022-09-10T02:34:16.346Z,5.20
2022-09-10T02:36:43.543Z,3.72
2022-09-10T02:39:10.382Z,3.10
2022-09-10T02:41:38.183Z,4.10
2022-09-10T02:44:04.827Z,2.55
2022-09-10T02:46:31.903Z,3.35
2022-09-10T02:48:59.041Z,3.45
2022-09-10T02:51:26.306Z,2.65
2022-09-10T02:53:53.404Z,3.55
2022-09-10T02:56:20.125Z,3.22
2022-09-10T02:58:46.888Z,3.67
2022-09-10T03:01:16.344Z,2.72
2022-09-10T03:03:43.037Z,2.22
2022-09-10T03:06:12.569Z,4.40
2022-09-10T03:08:39.297Z,1.60
2022-09-10T03:11:07.573Z,1.90
2022-09-10T03:13:35.463Z,3.72
2022-09-10T03:16:05.959Z,4.20
2022-09-10T03:18:32.671Z,2.08
2022-09-10T03:21:15.957Z,2.85
2022-09-10T03:23:44.922Z,2.95
2022-09-10T03:26:12.109Z,4.75
2022-09-10T03:28:39.004Z,2.08
2022-09-10T03:31:06.029Z,2.30
2022-09-10T03:33:33.581Z,2.67
2022-09-10T03:36:00.884Z,3.83
2022-09-10T03:38:27.883Z,4.20
2022-09-10T03:40:55.149Z,3.70
2022-09-10T03:43:22.531Z,3.15
2022-09-10T03:45:52.868Z,3.85
2022-09-10T03:48:20.593Z,3.88
2022-09-10T03:50:48.166Z,3.80
2022-09-10T03:53:15.911Z,5.07
2022-09-10T03:55:47.140Z,4.57
2022-09-10T03:58:14.939Z,4.40
2022-09-10T04:00:43.178Z,6.47
2022-09-10T04:03:11.118Z,5.75
2022-09-10T04:05:45.118Z,6.68
2022-09-10T04:08:15.457Z,5.70
2022-09-10T04:10:44.153Z,6.30
2022-09-10T04:13:11.250Z,5.97
2022-09-10T04:15:38.613Z,3.67
2022-09-10T04:18:06.469Z,5.78
2022-09-10T04:20:35.105Z,4.50
2022-09-10T04:23:03.026Z,5.07
2022-09-10T04:25:30.035Z,4.60
2022-09-10T04:27:56.632Z,5.60
2022-09-10T04:30:23.443Z,6.00
2022-09-10T04:32:50.457Z,5.85
2022-09-10T04:35:17.190Z,4.72
2022-09-10T04:37:43.849Z,5.43
2022-09-10T04:40:13.012Z,5.82
2022-09-10T04:42:39.742Z,5.35
2022-09-10T04:45:07.289Z,5.47
2022-09-10T04:47:34.445Z,7.00
2022-09-10T04:50:01.693Z,5.15
2022-09-10T04:52:29.058Z,5.75
2022-09-10T04:54:56.000Z,6.72
2022-09-10T04:57:23.678Z,12.30
2022-09-10T04:59:50.378Z,6.45
2022-09-10T05:02:17.030Z,6.25
2022-09-10T05:04:44.248Z,5.63
2022-09-10T05:07:10.881Z,6.13
2022-09-10T05:09:37.729Z,5.13
2022-09-10T05:12:04.505Z,4.60
2022-09-10T05:14:31.213Z,6.18
2022-09-10T05:16:58.371Z,6.63
2022-09-10T05:19:25.179Z,5.72
2022-09-10T05:21:51.809Z,7.80
2022-09-10T05:24:18.463Z,7.78
2022-09-10T05:26:46.573Z,8.05
2022-09-10T05:29:14.121Z,6.15
2022-09-10T05:31:41.253Z,6.55
2022-09-10T05:34:08.505Z,8.93
2022-09-10T05:36:35.622Z,12.00
2022-09-10T05:39:03.872Z,8.20
2022-09-10T05:41:31.289Z,9.25
2022-09-10T05:43:58.418Z,8.40
2022-09-10T05:46:25.498Z,7.60
2022-09-10T05:48:55.818Z,7.22
2022-09-10T05:51:22.701Z,12.98
2022-09-10T05:53:50.079Z,9.68
2022-09-10T05:56:16.898Z,8.43
2022-09-10T05:58:45.360Z,7.40
2022-09-10T06:01:12.455Z,7.15
2022-09-10T06:03:40.500Z,7.68
2022-09-10T06:06:07.572Z,8.30
2022-09-10T06:08:35.644Z,8.27
2022-09-10T06:11:05.931Z,7.95
2022-09-10T06:13:34.551Z,8.05
2022-09-10T06:16:03.212Z,7.35
2022-09-10T06:18:30.929Z,6.85
2022-09-10T06:21:09.267Z,9.10
2022-09-10T06:23:39.391Z,11.35
2022-09-10T06:26:09.863Z,7.85
2022-09-10T06:28:36.847Z,8.85
2022-09-10T06:31:04.508Z,5.22
2022-09-10T06:33:32.212Z,8.50
2022-09-10T06:36:00.763Z,6.72
2022-09-10T06:38:37.541Z,6.65
2022-09-10T06:41:07.057Z,7.22
2022-09-10T06:43:36.757Z,8.82
2022-09-10T06:49:01.090Z,9.10
2022-09-10T06:51:27.770Z,13.13
2022-09-10T06:53:54.404Z,11.75
2022-09-10T06:56:21.596Z,7.32
2022-09-10T06:58:48.413Z,9.95
2022-09-10T07:01:17.748Z,8.07
2022-09-10T07:03:46.582Z,7.15
2022-09-10T07:06:17.839Z,6.63
2022-09-10T07:08:44.920Z,6.45
2022-09-10T07:11:13.651Z,6.20
2022-09-10T07:13:41.586Z,6.78
2022-09-10T07:16:08.998Z,6.75
2022-09-10T07:18:36.515Z,5.53
2022-09-10T07:21:11.468Z,8.15
2022-09-10T07:23:42.698Z,6.72
2022-09-10T07:26:12.071Z,6.88
2022-09-10T07:28:40.499Z,6.13
2022-09-10T07:31:18.844Z,5.28
2022-09-10T07:33:45.951Z,4.90
2022-09-10T07:36:12.728Z,6.55
2022-09-10T07:38:40.997Z,6.93
2022-09-10T07:41:12.347Z,6.10
2022-09-10T07:43:43.764Z,6.05
2022-09-10T07:46:16.484Z,6.93
2022-09-10T07:48:43.141Z,5.25
2022-09-10T07:51:11.664Z,4.40
2022-09-10T07:53:38.812Z,4.63
2022-09-10T07:56:07.938Z,5.63
2022-09-10T07:58:36.187Z,3.67
2022-09-10T08:01:09.255Z,3.70
2022-09-10T08:03:36.034Z,4.15
2022-09-10T08:06:04.040Z,6.30
2022-09-10T08:08:35.651Z,3.65
2022-09-10T08:11:13.261Z,5.57
2022-09-10T08:13:48.267Z,3.60
2022-09-10T08:16:19.074Z,5.57
2022-09-10T08:18:51.312Z,7.40
2022-09-10T08:21:19.127Z,7.65
2022-09-10T08:23:59.689Z,8.65
2022-09-10T08:26:26.467Z,8.77
2022-09-10T08:28:55.966Z,11.00
2022-09-10T08:33:53.705Z,12.90
2022-09-10T08:36:22.081Z,14.82
2022-09-10T08:38:55.140Z,12.30
2022-09-10T08:41:44.896Z,11.85
2022-09-10T08:44:16.261Z,15.68
2022-09-10T08:46:48.765Z,25.85
2022-09-10T08:49:36.792Z,14.88
2022-09-10T08:52:16.742Z,26.88
2022-09-10T08:54:54.841Z,18.52
2022-09-10T08:57:32.872Z,14.15
2022-09-10T09:00:01.823Z,9.88
2022-09-10T09:03:02.451Z,10.00
2022-09-10T09:05:38.423Z,8.90
2022-09-10T09:08:06.393Z,16.30
2022-09-10T09:10:46.647Z,24.33
2022-09-10T09:13:28.955Z,23.23
2022-09-10T09:16:01.479Z,22.10
2022-09-10T09:18:48.132Z,10.32
2022-09-10T09:21:23.799Z,9.35
2022-09-10T09:24:12.667Z,14.68
2022-09-10T09:26:42.046Z,26.23
2022-09-10T09:29:15.231Z,10.85
2022-09-10T09:31:47.683Z,14.23
2022-09-10T09:34:29.350Z,7.55
2022-09-10T09:37:01.462Z,11.52
2022-09-10T09:39:36.360Z,9.80
2022-09-10T09:42:25.162Z,12.48
2022-09-10T09:45:08.386Z,12.75
2022-09-10T09:47:35.194Z,12.00
2022-09-10T09:50:01.854Z,14.30
2022-09-10T09:52:31.930Z,5.10
2022-09-10T09:55:14.720Z,11.20
2022-09-10T09:57:43.131Z,9.43
2022-09-10T10:00:33.049Z,10.15
2022-09-10T10:03:20.725Z,13.98
2022-09-10T10:05:48.803Z,9.68
2022-09-10T10:08:34.305Z,10.15
2022-09-10T10:11:01.618Z,11.88
2022-09-10T10:13:43.284Z,8.38
2022-09-10T10:16:23.671Z,9.43
2022-09-10T10:18:50.845Z,6.80
2022-09-10T10:21:17.488Z,7.45
2022-09-10T10:23:44.778Z,10.05
2022-09-10T10:26:20.492Z,11.50
2022-09-10T10:28:56.836Z,6.18
2022-09-10T10:31:24.208Z,7.82
2022-09-10T10:33:56.634Z,6.50
2022-09-10T10:36:39.522Z,10.70
2022-09-10T10:39:40.389Z,27.90
2022-09-10T10:42:35.553Z,6.57
2022-09-10T10:45:24.119Z,7.53
2022-09-10T10:48:16.148Z,8.10
2022-09-10T10:50:55.711Z,4.30
2022-09-10T10:53:31.410Z,6.53
2022-09-10T10:55:58.610Z,3.75
2022-09-10T10:58:51.090Z,5.22
2022-09-10T11:01:22.064Z,5.35
2022-09-10T11:04:11.661Z,10.00
2022-09-10T11:06:45.147Z,18.70
2022-09-10T11:09:14.671Z,4.90
2022-09-10T11:12:03.819Z,4.47
2022-09-10T11:14:33.529Z,4.50
2022-09-10T11:17:06.812Z,7.32
2022-09-10T11:19:43.265Z,10.00
2022-09-10T11:22:22.020Z,6.45
2022-09-10T11:24:51.328Z,5.75
2022-09-10T11:27:29.218Z,7.55
2022-09-10T11:30:04.744Z,6.45
2022-09-10T11:32:35.202Z,14.00
2022-09-10T11:35:13.411Z,9.23
2022-09-10T11:38:01.347Z,4.78
2022-09-10T11:41:00.457Z,5.75
2022-09-10T11:43:49.054Z,9.00
2022-09-10T11:46:22.037Z,4.75
2022-09-10T11:48:51.498Z,6.25
2022-09-10T11:51:31.359Z,4.85
2022-09-10T11:53:58.438Z,5.13
2022-09-10T11:56:38.029Z,5.00
2022-09-10T11:59:20.874Z,5.28
2022-09-10T12:02:33.076Z,5.57
2022-09-10T12:05:18.435Z,5.28
2022-09-10T12:08:08.019Z,7.32
2022-09-10T12:11:07.645Z,4.68
2022-09-10T12:13:39.500Z,7.43
2022-09-10T12:16:22.715Z,5.43
2022-09-10T12:18:53.039Z,9.57
2022-09-10T12:21:28.682Z,5.85
2022-09-10T12:23:56.447Z,10.57
2022-09-10T12:26:23.919Z,14.13
2022-09-10T12:28:53.234Z,10.15
2022-09-10T12:31:21.934Z,7.93
2022-09-10T12:33:48.535Z,8.07
2022-09-10T12:36:35.775Z,8.70
2022-09-10T12:39:21.092Z,11.65
2022-09-10T12:41:47.681Z,4.95
2022-09-10T12:44:29.298Z,3.88
2022-09-10T12:47:15.315Z,4.88
2022-09-10T12:49:51.919Z,8.25
2022-09-10T12:52:36.392Z,7.32
2022-09-10T12:55:03.001Z,9.35
2022-09-10T12:57:52.466Z,5.57
2022-09-10T13:00:23.952Z,5.13
2022-09-10T13:03:09.609Z,3.80
2022-09-10T13:05:44.992Z,2.83
2022-09-10T13:08:45.091Z,2.42
2022-09-10T13:14:18.885Z,3.53
2022-09-10T13:16:50.463Z,4.32
2022-09-10T13:19:19.930Z,2.05
2022-09-10T13:21:48.212Z,2.80
2022-09-10T13:24:36.356Z,5.20
2022-09-10T13:27:22.614Z,1.67
2022-09-10T13:30:11.700Z,1.25
2022-09-10T13:33:05.511Z,2.38
2022-09-10T13:35:50.620Z,2.92
2022-09-10T13:38:33.184Z,2.58
2022-09-10T13:41:16.642Z,1.75
2022-09-10T13:44:27.083Z,3.33
2022-09-10T13:47:00.057Z,4.75
2022-09-10T13:49:55.423Z,2.30
2022-09-10T13:52:31.072Z,4.50
2022-09-10T13:55:00.639Z,4.28
2022-09-10T13:58:04.466Z,3.95
2022-09-10T14:00:41.193Z,2.88
2022-09-10T14:03:16.714Z,3.15
2022-09-10T14:05:50.850Z,5.60
2022-09-10T14:08:23.787Z,4.00
2022-09-10T14:11:08.153Z,6.28
2022-09-10T14:14:16.988Z,4.68
2022-09-10T14:16:52.724Z,3.42
2022-09-10T14:19:22.963Z,3.45
2022-09-10T14:21:51.762Z,4.05
2022-09-10T14:24:33.750Z,2.40
2022-09-10T14:27:27.838Z,4.88
2022-09-10T14:29:56.633Z,3.05
2022-09-10T14:32:25.847Z,2.85
2022-09-10T14:34:52.608Z,3.00
2022-09-10T14:37:28.667Z,2.30
2022-09-10T14:39:56.712Z,3.90
2022-09-10T14:42:33.031Z,4.18
2022-09-10T14:45:00.109Z,6.60
2022-09-10T14:47:35.082Z,3.70
2022-09-10T14:50:38.731Z,3.80
2022-09-10T14:53:05.329Z,4.25
2022-09-10T14:55:32.776Z,3.45
2022-09-10T14:57:59.851Z,5.85
2022-09-10T15:00:26.759Z,2.63
2022-09-10T15:02:58.763Z,3.15
2022-09-10T15:05:25.524Z,3.30
2022-09-10T15:07:52.152Z,5.22
2022-09-10T15:10:18.854Z,4.97
2022-09-10T15:12:50.232Z,4.38
2022-09-10T15:15:17.930Z,4.70
2022-09-10T15:17:44.851Z,3.60
2022-09-10T15:20:17.097Z,5.20
2022-09-10T15:22:44.704Z,4.18
2022-09-10T15:25:43.525Z,6.65
2022-09-10T15:28:10.371Z,8.65
2022-09-10T15:30:37.061Z,6.95
2022-09-10T15:33:07.518Z,3.92
2022-09-10T15:35:34.263Z,6.18
2022-09-10T15:38:03.981Z,5.82
2022-09-10T15:40:31.870Z,5.25
2022-09-10T15:42:58.506Z,8.85
2022-09-10T15:45:25.353Z,7.50
2022-09-10T15:47:52.065Z,4.68
2022-09-10T15:50:20.290Z,3.47
2022-09-10T15:52:47.531Z,6.78
2022-09-10T15:55:14.317Z,4.95
2022-09-10T15:57:41.386Z,6.80
2022-09-10T16:00:08.716Z,6.03
2022-09-10T16:02:35.489Z,8.80
2022-09-10T16:05:02.245Z,5.78
2022-09-10T16:07:29.568Z,5.35
2022-09-10T16:09:58.912Z,7.38
2022-09-10T16:12:28.293Z,5.97
2022-09-10T16:15:01.308Z,5.75
2022-09-10T16:17:28.649Z,7.47
2022-09-10T16:19:56.799Z,6.53
2022-09-10T16:22:24.133Z,5.00
2022-09-10T16:24:50.761Z,6.07
2022-09-10T16:27:18.713Z,7.00
2022-09-10T16:29:46.414Z,5.75
2022-09-10T16:32:13.516Z,7.05
2022-09-10T16:34:41.972Z,6.05
2022-09-10T16:37:08.740Z,5.30
2022-09-10T16:39:36.300Z,5.05
2022-09-10T16:42:03.457Z,5.47
2022-09-10T16:44:31.528Z,15.38
2022-09-10T16:46:59.431Z,6.22
2022-09-10T16:49:27.534Z,5.15
2022-09-10T16:51:55.002Z,4.82
2022-09-10T16:54:23.207Z,5.18
2022-09-10T16:56:50.516Z,8.70
2022-09-10T16:59:20.411Z,5.18
2022-09-10T17:01:48.429Z,4.80
2022-09-10T17:04:20.456Z,5.47
2022-09-10T17:06:49.047Z,5.30
2022-09-10T17:09:15.943Z,4.63
2022-09-10T17:11:42.600Z,4.55
2022-09-10T17:14:09.313Z,10.48
2022-09-10T17:16:40.003Z,5.90
2022-09-10T17:19:15.286Z,5.45
2022-09-10T17:21:44.541Z,5.70
2022-09-10T17:24:13.200Z,5.00
2022-09-10T17:26:40.980Z,4.88
2022-09-10T17:29:10.491Z,8.70
2022-09-10T17:31:37.256Z,6.32
2022-09-10T17:34:04.746Z,7.78
2022-09-10T17:36:32.339Z,4.95
2022-09-10T17:38:59.353Z,6.13
2022-09-10T17:41:29.712Z,6.57
2022-09-10T17:43:58.698Z,7.68
2022-09-10T17:46:27.248Z,6.25
2022-09-10T17:48:54.625Z,6.28
2022-09-10T17:51:27.132Z,11.18
2022-09-10T17:53:55.576Z,5.95
2022-09-10T17:56:24.173Z,8.13
2022-09-10T17:58:57.368Z,6.95
2022-09-10T18:01:30.095Z,6.75
2022-09-10T18:03:57.084Z,7.32
2022-09-10T18:06:29.370Z,10.07
2022-09-10T18:09:00.684Z,10.77
2022-09-10T18:11:30.297Z,10.00
2022-09-10T18:13:58.293Z,16.75
2022-09-10T18:16:28.595Z,11.70
2022-09-10T18:19:04.619Z,10.85
2022-09-10T18:21:34.147Z,8.63
2022-09-10T18:24:05.404Z,9.77
2022-09-10T18:26:35.129Z,8.45
2022-09-10T18:31:34.110Z,10.18
2022-09-10T18:34:05.447Z,11.13
2022-09-10T18:36:32.206Z,7.68
2022-09-10T18:39:02.713Z,8.45
2022-09-10T18:41:32.593Z,7.88
2022-09-10T18:44:02.191Z,7.30
2022-09-10T18:46:32.350Z,8.93
2022-09-10T18:48:59.983Z,6.70
2022-09-10T18:51:29.774Z,7.78
2022-09-10T18:56:27.649Z,5.68
2022-09-10T18:59:00.541Z,6.97
2022-09-10T19:01:29.536Z,9.18
2022-09-10T19:03:57.666Z,5.60
2022-09-10T19:06:29.744Z,8.35
2022-09-10T19:08:59.415Z,7.50
2022-09-10T19:13:56.743Z,9.10
2022-09-10T19:16:27.547Z,7.50
2022-09-10T19:18:59.704Z,8.40
2022-09-10T19:21:28.880Z,7.80
2022-09-10T19:23:59.443Z,8.73
2022-09-10T19:26:29.222Z,11.57
2022-09-10T19:29:00.201Z,22.48
2022-09-10T19:31:28.629Z,8.88
2022-09-10T19:33:57.680Z,11.77
2022-09-10T19:36:27.588Z,8.90
2022-09-10T19:38:55.157Z,6.53
2022-09-10T19:41:23.493Z,7.78
2022-09-10T19:43:51.966Z,9.57
2022-09-10T19:46:20.246Z,7.68
2022-09-10T19:48:47.725Z,9.18
2022-09-10T19:51:17.631Z,8.52
2022-09-10T19:53:45.074Z,10.15
2022-09-10T19:56:20.450Z,11.13
2022-09-10T19:58:50.095Z,9.98
2022-09-10T20:01:26.134Z,9.85
2022-09-10T20:03:54.336Z,9.82
2022-09-10T20:06:25.612Z,12.60
2022-09-10T20:08:52.921Z,9.18
2022-09-10T20:11:24.623Z,8.75
2022-09-10T20:14:02.292Z,10.45
2022-09-10T20:16:31.623Z,11.48
2022-09-10T20:18:58.564Z,10.32
2022-09-10T20:21:31.063Z,10.70
2022-09-10T20:23:59.039Z,8.95
2022-09-10T20:26:27.666Z,11.30
2022-09-10T20:29:04.028Z,10.60
2022-09-10T20:31:33.986Z,8.75
2022-09-10T20:34:05.660Z,12.35
2022-09-10T20:36:34.992Z,18.92
2022-09-10T20:39:02.131Z,9.57
2022-09-10T20:41:31.970Z,12.52
2022-09-10T20:46:28.552Z,11.23
2022-09-10T20:49:03.275Z,9.85
2022-09-10T20:51:40.628Z,9.60
2022-09-10T20:54:14.684Z,10.57
2022-09-10T20:56:41.510Z,10.82
2022-09-10T20:59:08.375Z,10.15
2022-09-10T21:01:35.278Z,11.98
2022-09-10T21:04:03.136Z,10.73
2022-09-10T21:06:32.349Z,12.20
2022-09-10T21:09:00.226Z,9.48
2022-09-10T21:11:29.670Z,11.55
2022-09-10T21:13:58.475Z,13.77
2022-09-10T21:16:32.285Z,11.80
2022-09-10T21:19:01.223Z,9.90
2022-09-10T21:21:30.416Z,10.13
2022-09-10T21:24:01.415Z,11.15
2022-09-10T21:26:30.879Z,10.93
2022-09-10T21:28:59.881Z,10.43
2022-09-10T21:31:27.515Z,7.82
2022-09-10T21:34:00.616Z,11.52
2022-09-10T21:36:30.197Z,7.60
2022-09-10T21:39:00.457Z,8.65
2022-09-10T21:41:47.945Z,9.60
2022-09-10T21:44:21.135Z,7.82
2022-09-10T21:46:52.307Z,8.23
2022-09-10T21:49:20.307Z,9.48
2022-09-10T21:51:47.038Z,7.18
2022-09-10T21:54:17.162Z,12.05
2022-09-10T21:56:43.845Z,10.32
2022-09-10T21:59:12.388Z,7.57
2022-09-10T22:01:43.943Z,8.05
2022-09-10T22:04:11.939Z,9.23
2022-09-10T22:06:39.134Z,10.23
2022-09-10T22:09:09.556Z,8.63
2022-09-10T22:11:45.910Z,7.65
2022-09-10T22:14:18.106Z,9.88
2022-09-10T22:16:48.378Z,8.93
2022-09-10T22:19:19.895Z,11.18
2022-09-10T22:21:47.222Z,11.98
2022-09-10T22:24:14.864Z,16.00
2022-09-10T22:26:44.013Z,11.85
2022-09-10T22:29:12.505Z,9.95
2022-09-10T22:31:39.170Z,9.00
2022-09-10T22:34:13.522Z,9.48
2022-09-10T22:36:41.740Z,11.27
2022-09-10T22:39:14.393Z,9.15
2022-09-10T22:41:41.688Z,8.18
2022-09-10T22:44:08.931Z,10.43
2022-09-10T22:46:36.949Z,10.45
2022-09-10T22:49:04.643Z,11.02
2022-09-10T22:51:37.676Z,11.40
2022-09-10T22:54:05.532Z,9.20
2022-09-10T22:56:33.188Z,7.97
2022-09-10T22:59:00.286Z,7.72
2022-09-10T23:01:29.906Z,12.60
2022-09-10T23:04:01.337Z,9.40
2022-09-10T23:06:30.877Z,8.43
2022-09-10T23:09:03.654Z,8.68
2022-09-10T23:11:32.612Z,8.82
2022-09-10T23:14:02.488Z,8.63
2022-09-10T23:16:49.791Z,10.13
2022-09-10T23:19:20.078Z,10.65
2022-09-10T23:21:51.356Z,8.02
2022-09-10T23:24:20.563Z,7.25
2022-09-10T23:26:47.368Z,8.23
2022-09-10T23:29:18.671Z,11.05
2022-09-10T23:31:46.326Z,9.73
2022-09-10T23:34:18.794Z,10.50
2022-09-10T23:36:47.460Z,8.75
2022-09-10T23:39:20.171Z,14.52
2022-09-10T23:41:48.409Z,7.93
2022-09-10T23:44:15.165Z,12.82
2022-09-10T23:46:41.962Z,8.40
2022-09-10T23:49:09.027Z,8.80
2022-09-10T23:51:36.723Z,7.88
2022-09-10T23:54:03.683Z,7.50
2022-09-10T23:56:30.636Z,7.85
2022-09-10T23:58:59.617Z,7.85
